ADDS METAR Data INFO
IDs: Format: Raw Decoded Include TAF

Data at: 0030 UTC 23 Oct 2017

KFYJ 230015Z AUTO 08003KT 10SM CLR 16/16 A3034 RMK AO2 T01640160
KFYJ 222355Z AUTO 09003KT 10SM CLR 17/16 A3034 RMK AO2 T01660160 10243 20166
KFYJ 222335Z AUTO 09003KT 10SM CLR 18/16 A3033 RMK AO2 T01750161
KFYJ 222315Z AUTO 10004KT 10SM CLR 18/16 A3033 RMK AO2 T01750160
KFYJ 222255Z AUTO 11004KT 10SM CLR 18/16 A3032 RMK AO2 T01750155
KFYJ 222235Z AUTO 11005KT 10SM CLR 19/16 A3032 RMK AO2 T01890160
KFYJ 222215Z AUTO 12006KT 10SM CLR 20/16 A3032 RMK AO2 T01950163
KFYJ 222155Z AUTO 12005KT 10SM CLR 21/16 A3032 RMK AO2 T02070162
KFYJ 222135Z AUTO 11005KT 10SM CLR 22/16 A3032 RMK AO2 T02210157
KFYJ 222115Z AUTO 14004KT 10SM CLR 23/14 A3032 RMK AO2 T02290135
KFYJ 222055Z AUTO 14005KT 10SM CLR 23/12 A3032 RMK AO2 T02340118
KFYJ 222035Z AUTO 15005KT 10SM CLR 24/11 A3032 RMK AO2 T02350108
KFYJ 222015Z AUTO 17007KT 10SM CLR 24/10 A3033 RMK AO2 T02360101
KFYJ 221955Z AUTO 17005KT 10SM CLR 24/12 A3032 RMK AO2 T02380123
KFYJ 221935Z AUTO 17007KT 10SM CLR 24/12 A3033 RMK AO2 T02380121
KFYJ 221915Z AUTO 17006KT 10SM CLR 24/11 A3033 RMK AO2 T02400113
KFYJ 221855Z AUTO 17005KT 10SM CLR 24/10 A3034 RMK AO2 T02410102
KFYJ 221835Z AUTO 19005KT 10SM CLR 24/10 A3035 RMK AO2 T02400103
KFYJ 221815Z AUTO 15004KT 10SM CLR 24/11 A3035 RMK AO2 T02380114
KFYJ 221755Z AUTO 19004KT 10SM CLR 24/11 A3036 RMK AO2 T02400113 10240 20085
KFYJ 221735Z AUTO 13004KT 10SM CLR 24/12 A3037 RMK AO2 T02390120
KFYJ 221715Z AUTO 22006KT 10SM CLR 23/13 A3037 RMK AO2 T02330125
KFYJ 221655Z AUTO 17005KT 10SM CLR 23/13 A3038 RMK AO2 T02330129
KFYJ 221635Z AUTO 16003KT 10SM CLR 23/13 A3038 RMK AO2 T02300127
KFYJ 221615Z AUTO 18005KT 10SM CLR 23/14 A3039 RMK AO2 T02290142
KFYJ 221555Z AUTO 17005KT 10SM CLR 23/15 A3039 RMK AO2 T02250152
KFYJ 221535Z AUTO 18003KT 10SM CLR 22/15 A3040 RMK AO2 T02180149
KFYJ 221515Z AUTO 18003KT 10SM CLR 21/16 A3040 RMK AO2 T02140156
KFYJ 221455Z AUTO 00000KT 10SM CLR 21/15 A3041 RMK AO2 T02120154
KFYJ 221435Z AUTO 10004KT 10SM CLR 20/16 A3041 RMK AO2 T02010160
KFYJ 221415Z AUTO 00000KT 10SM CLR 19/17 A3041 RMK AO2 T01930166
KFYJ 221355Z AUTO 00000KT 10SM CLR 18/17 A3042 RMK AO2 T01760169
KFYJ 221335Z AUTO 00000KT 10SM CLR 17/17 A3042 RMK AO2 T01650165
KFYJ 221315Z AUTO 00000KT 10SM CLR 15/15 A3042 RMK AO2 T01480148
KFYJ 221255Z AUTO 00000KT 10SM CLR 13/13 A3042 RMK AO2 T01270127
KFYJ 221235Z AUTO 00000KT 10SM CLR 11/11 A3041 RMK AO2 T01070107
KFYJ 221215Z AUTO 00000KT 10SM CLR 09/09 A3041 RMK AO2 T00900090
KFYJ 221155Z AUTO 00000KT 10SM CLR 09/09 A3040 RMK AO2 T00850085 10101 20079
KFYJ 221135Z AUTO 00000KT 10SM CLR 09/09 A3040 RMK AO2 T00850085
KFYJ 221115Z AUTO 00000KT 10SM CLR 09/09 A3039 RMK AO2 T00860086
KFYJ 221055Z AUTO 00000KT 10SM CLR 09/09 A3039 RMK AO2 T00870087
KFYJ 221035Z AUTO 00000KT 10SM CLR 09/09 A3039 RMK AO2 T00860086
KFYJ 221015Z AUTO 00000KT 10SM CLR 09/09 A3038 RMK AO2 T00870087
KFYJ 220955Z AUTO 00000KT 10SM CLR 09/09 A3038 RMK AO2 T00850085
KFYJ 220935Z AUTO 00000KT 10SM CLR 09/09 A3037 RMK AO2 T00860086
KFYJ 220915Z AUTO 00000KT 10SM CLR 09/09 A3037 RMK AO2 T00850085
KFYJ 220855Z AUTO 00000KT 1SM BKN001 09/09 A3036 RMK AO2 T00860086
KFYJ 220835Z AUTO 00000KT 2 1/2SM BKN001 09/09 A3036 RMK AO2 T00850085
KFYJ 220815Z AUTO 00000KT 10SM CLR 08/08 A3035 RMK AO2 T00800080
KFYJ 220755Z AUTO 00000KT 10SM CLR 09/09 A3036 RMK AO2 T00870087
KFYJ 220735Z AUTO 00000KT 10SM CLR 09/09 A3036 RMK AO2 T00940094
KFYJ 220715Z AUTO 00000KT 10SM CLR 09/09 A3035 RMK AO2 T00910091
KFYJ 220655Z AUTO 00000KT 10SM CLR 09/09 A3036 RMK AO2 T00900090
KFYJ 220635Z AUTO 00000KT 10SM CLR 09/09 A3036 RMK AO2 T00910091
KFYJ 220615Z AUTO 00000KT 10SM CLR 10/10 A3036 RMK AO2 T00990099
KFYJ 220555Z AUTO 00000KT 10SM CLR 10/10 A3036 RMK AO2 T01000100 10152 20097 402470065
KFYJ 220535Z AUTO 00000KT 10SM CLR 10/10 A3036 RMK AO2 T00970097
KFYJ 220515Z AUTO 00000KT 7SM CLR 10/10 A3037 RMK AO2 T00990099
KFYJ 220455Z AUTO 00000KT 10SM CLR 11/11 A3037 RMK AO2 T01060106
KFYJ 220435Z AUTO 00000KT 10SM CLR 10/10 A3037 RMK AO2 T01040104
KFYJ 220415Z AUTO 00000KT 10SM CLR 10/10 A3037 RMK AO2 T01000100
KFYJ 220355Z AUTO 00000KT 10SM CLR 10/10 A3037 RMK AO2 T01040104
KFYJ 220335Z AUTO 00000KT 10SM CLR 11/11 A3038 RMK AO2 T01070107
KFYJ 220315Z AUTO 00000KT 10SM CLR 12/12 A3037 RMK AO2 T01150115
KFYJ 220255Z AUTO 00000KT 10SM CLR 12/12 A3038 RMK AO2 T01210121
KFYJ 220235Z AUTO 00000KT 10SM CLR 13/13 A3038 RMK AO2 T01270127
KFYJ 220215Z AUTO 00000KT 10SM CLR 13/13 A3038 RMK AO2 T01260126
KFYJ 220155Z AUTO 00000KT 10SM CLR 13/13 A3037 RMK AO2 T01290129
KFYJ 220135Z AUTO 00000KT 10SM CLR 13/13 A3038 RMK AO2 T01340133
KFYJ 220115Z AUTO 00000KT 10SM CLR 14/13 A3038 RMK AO2 T01360131
KFYJ 220055Z AUTO 00000KT 10SM CLR 14/13 A3038 RMK AO2 T01360127
KFYJ 220035Z AUTO 00000KT 10SM CLR 15/13 A3038 RMK AO2 T01450133
KFYJ 220015Z AUTO 00000KT 10SM CLR 15/14 A3037 RMK AO2 T01460135
KFYJ 212355Z AUTO 00000KT 10SM CLR 15/14 A3037 RMK AO2 T01530140 10247 20150
KFYJ 212335Z AUTO 09003KT 10SM CLR 16/13 A3037 RMK AO2 T01580133
KFYJ 212315Z AUTO 09003KT 10SM CLR 17/14 A3036 RMK AO2 T01700140
KFYJ 212255Z AUTO 09003KT 10SM CLR 17/14 A3036 RMK AO2 T01710136
KFYJ 212235Z AUTO 00000KT 10SM CLR 19/14 A3035 RMK AO2 T01860138
KFYJ 212215Z AUTO 09004KT 10SM CLR 19/14 A3034 RMK AO2 T01870142
KFYJ 212155Z AUTO 09005KT 10SM CLR 20/15 A3034 RMK AO2 T02010145
KFYJ 212135Z AUTO 10005KT 10SM CLR 22/13 A3034 RMK AO2 T02190133
KFYJ 212115Z AUTO 12005KT 10SM CLR 23/12 A3034 RMK AO2 T02280123
KFYJ 212055Z AUTO 15004KT 10SM CLR 24/12 A3033 RMK AO2 T02350115
KFYJ 212035Z AUTO 15004KT 10SM CLR 24/11 A3033 RMK AO2 T02380105
KFYJ 212015Z AUTO 20003KT 10SM CLR 24/10 A3033 RMK AO2 T02420097
KFYJ 211955Z AUTO 19003KT 10SM CLR 25/09 A3033 RMK AO2 T02450094
KFYJ 211935Z AUTO 21004KT 10SM CLR 25/09 A3033 RMK AO2 T02450092
KFYJ 211915Z AUTO 20004KT 10SM CLR 25/10 A3032 RMK AO2 T02470096
KFYJ 211850Z AUTO 20005KT 10SM CLR 25/10 A3032 RMK AO2 T02460097
KFYJ 211835Z AUTO 23005KT 10SM CLR 25/10 A3032 RMK AO2 T02450098
KFYJ 211815Z AUTO 18004KT 10SM CLR 25/09 A3032 RMK AO2 T02450088
KFYJ 211755Z AUTO 25004KT 10SM CLR 24/09 A3033 RMK AO2 T02430086 10244 20076
KFYJ 211735Z AUTO 25004KT 10SM CLR 24/09 A3034 RMK AO2 T02390086
KFYJ 211715Z AUTO 22004KT 10SM CLR 24/09 A3034 RMK AO2 T02380094
KFYJ 211655Z AUTO 20004KT 10SM CLR 24/11 A3035 RMK AO2 T02360110
KFYJ 211635Z AUTO 00000KT 10SM CLR 23/11 A3036 RMK AO2 T02310112
KFYJ 211615Z AUTO 00000KT 10SM CLR 23/12 A3037 RMK AO2 T02260122
KFYJ 211555Z AUTO 00000KT 10SM CLR 23/13 A3037 RMK AO2 T02280128
KFYJ 211535Z AUTO 00000KT 10SM CLR 22/12 A3037 RMK AO2 T02230116
KFYJ 211515Z AUTO 00000KT 10SM CLR 21/12 A3037 RMK AO2 T02120119
KFYJ 211455Z AUTO 00000KT 10SM CLR 20/13 A3037 RMK AO2 T01950132
KFYJ 211435Z AUTO 00000KT 10SM CLR 19/14 A3037 RMK AO2 T01870138
KFYJ 211415Z AUTO 00000KT 10SM CLR 17/14 A3037 RMK AO2 T01720138
KFYJ 211355Z AUTO 00000KT 10SM CLR 16/14 A3037 RMK AO2 T01580143
KFYJ 211335Z AUTO 00000KT 10SM CLR 14/14 A3037 RMK AO2 T01430143
KFYJ 211315Z AUTO 00000KT 10SM CLR 13/13 A3037 RMK AO2 T01300130
KFYJ 211255Z AUTO 00000KT 10SM CLR 12/12 A3036 RMK AO2 T01180118
KFYJ 211235Z AUTO 00000KT 7SM CLR 11/11 A3035 RMK AO2 T01080108